createdAt,value
2023-01-10T00:01:56.700Z,7.70
2023-01-10T00:04:26.429Z,6.93
2023-01-10T00:06:53.802Z,7.00
2023-01-10T00:09:20.902Z,5.70
2023-01-10T00:12:06.551Z,6.47
2023-01-10T00:14:35.188Z,5.57
2023-01-10T00:17:03.294Z,5.83
2023-01-10T00:19:30.757Z,6.10
2023-01-10T00:22:02.601Z,6.97
2023-01-10T00:24:29.822Z,5.77
2023-01-10T00:26:56.913Z,5.43
2023-01-10T00:29:26.490Z,6.30
2023-01-10T00:31:53.602Z,6.50
2023-01-10T00:34:20.772Z,5.20
2023-01-10T00:36:48.620Z,5.83
2023-01-10T00:39:18.402Z,5.43
2023-01-10T00:42:04.282Z,5.23
2023-01-10T00:44:31.453Z,5.33
2023-01-10T00:46:58.710Z,4.83
2023-01-10T00:49:25.857Z,4.57
2023-01-10T00:51:53.149Z,4.10
2023-01-10T00:54:20.351Z,4.30
2023-01-10T00:56:47.548Z,4.00
2023-01-10T00:59:14.705Z,4.00
2023-01-10T01:01:41.979Z,4.63
2023-01-10T01:04:09.176Z,6.33
2023-01-10T01:06:36.292Z,6.13
2023-01-10T01:09:03.569Z,6.83
2023-01-10T01:11:30.676Z,5.73
2023-01-10T01:13:57.911Z,4.87
2023-01-10T01:16:25.082Z,4.17
2023-01-10T01:18:52.241Z,4.73
2023-01-10T01:21:20.905Z,3.50
2023-01-10T01:23:48.073Z,3.53
2023-01-10T01:26:15.205Z,3.77
2023-01-10T01:28:42.386Z,3.43
2023-01-10T01:31:10.447Z,4.37
2023-01-10T01:33:37.836Z,3.93
2023-01-10T01:36:08.699Z,3.33
2023-01-10T01:38:35.944Z,3.27
2023-01-10T01:41:03.132Z,3.53
2023-01-10T01:43:34.452Z,3.47
2023-01-10T01:46:03.626Z,3.53
2023-01-10T01:48:34.022Z,3.00
2023-01-10T01:51:05.474Z,3.23
2023-01-10T01:53:39.075Z,3.83
2023-01-10T01:56:10.149Z,3.37
2023-01-10T01:58:43.208Z,3.30
2023-01-10T02:01:10.996Z,2.90
2023-01-10T02:03:38.767Z,3.17
2023-01-10T02:06:07.034Z,3.50
2023-01-10T02:08:34.523Z,3.60
2023-01-10T02:11:08.858Z,2.90
2023-01-10T02:13:38.510Z,2.90
2023-01-10T02:16:05.785Z,3.33
2023-01-10T02:18:32.952Z,3.77
2023-01-10T02:21:12.413Z,3.17
2023-01-10T02:23:54.865Z,2.43
2023-01-10T02:26:48.650Z,3.00
2023-01-10T02:29:18.569Z,2.90
2023-01-10T02:31:51.590Z,2.90
2023-01-10T02:34:29.557Z,3.13
2023-01-10T02:37:16.964Z,3.60
2023-01-10T02:39:53.141Z,2.77
2023-01-10T02:42:24.648Z,3.07
2023-01-10T02:44:55.447Z,3.07
2023-01-10T02:47:22.603Z,2.87
2023-01-10T02:49:50.877Z,2.83
2023-01-10T02:52:27.093Z,2.63
2023-01-10T02:54:56.077Z,3.17
2023-01-10T02:57:23.167Z,2.67
2023-01-10T02:59:59.324Z,3.30
2023-01-10T03:02:26.429Z,2.80
2023-01-10T03:04:53.663Z,3.33
2023-01-10T03:07:24.047Z,2.60
2023-01-10T03:09:55.858Z,3.63
2023-01-10T03:12:29.335Z,2.83
2023-01-10T03:14:57.617Z,3.00
2023-01-10T03:17:26.124Z,4.87
2023-01-10T03:19:55.254Z,2.83
2023-01-10T03:22:23.435Z,3.17
2023-01-10T03:24:53.037Z,2.90
2023-01-10T03:27:30.587Z,3.30
2023-01-10T03:30:16.270Z,2.70
2023-01-10T03:32:43.595Z,3.17
2023-01-10T03:35:11.748Z,3.07
2023-01-10T03:38:01.439Z,2.87
2023-01-10T03:40:37.015Z,2.90
2023-01-10T03:43:28.950Z,3.27
2023-01-10T03:46:01.512Z,3.17
2023-01-10T03:48:32.155Z,3.47
2023-01-10T03:51:00.934Z,2.83
2023-01-10T03:53:28.242Z,3.77
2023-01-10T03:55:55.449Z,3.03
2023-01-10T03:58:22.578Z,2.73
2023-01-10T04:00:50.093Z,2.77
2023-01-10T04:03:17.277Z,2.80
2023-01-10T04:05:44.421Z,2.97
2023-01-10T04:08:11.540Z,2.97
2023-01-10T04:10:38.650Z,3.47
2023-01-10T04:13:06.078Z,3.00
2023-01-10T04:15:33.401Z,2.83
2023-01-10T04:18:00.506Z,2.80
2023-01-10T04:20:27.666Z,3.57
2023-01-10T04:22:54.810Z,3.67
2023-01-10T04:25:22.597Z,3.67
2023-01-10T04:27:50.518Z,3.27
2023-01-10T04:30:18.743Z,3.03
2023-01-10T04:32:46.287Z,2.83
2023-01-10T04:35:13.715Z,4.00
2023-01-10T04:37:40.835Z,2.77
2023-01-10T04:40:08.414Z,3.10
2023-01-10T04:42:35.499Z,3.00
2023-01-10T04:45:02.747Z,3.20
2023-01-10T04:47:29.860Z,3.23
2023-01-10T04:49:56.956Z,3.53
2023-01-10T04:52:26.140Z,2.90
2023-01-10T04:54:53.252Z,4.60
2023-01-10T04:57:20.331Z,3.67
2023-01-10T04:59:47.473Z,2.90
2023-01-10T05:02:14.620Z,3.40
2023-01-10T05:04:41.848Z,3.27
2023-01-10T05:07:08.950Z,3.43
2023-01-10T05:09:36.549Z,2.77
2023-01-10T05:12:03.676Z,3.50
2023-01-10T05:14:30.839Z,3.53
2023-01-10T05:16:57.975Z,3.50
2023-01-10T05:19:25.118Z,3.37
2023-01-10T05:21:52.361Z,3.00
2023-01-10T05:24:19.542Z,3.10
2023-01-10T05:26:46.681Z,2.90
2023-01-10T05:29:17.155Z,2.33
2023-01-10T05:31:44.309Z,3.30
2023-01-10T05:34:14.530Z,3.17
2023-01-10T05:36:41.792Z,2.70
2023-01-10T05:39:08.970Z,3.20
2023-01-10T05:41:36.076Z,2.90
2023-01-10T05:44:03.483Z,3.10
2023-01-10T05:46:30.566Z,3.00
2023-01-10T05:48:57.700Z,4.30
2023-01-10T05:51:24.803Z,3.37
2023-01-10T05:53:51.892Z,3.40
2023-01-10T05:56:19.433Z,3.63
2023-01-10T05:58:47.436Z,3.17
2023-01-10T06:01:16.528Z,3.30
2023-01-10T06:03:43.782Z,3.47
2023-01-10T06:06:10.899Z,3.73
2023-01-10T06:08:38.081Z,3.07
2023-01-10T06:11:06.025Z,3.27
2023-01-10T06:13:33.217Z,3.67
2023-01-10T06:16:00.547Z,3.83
2023-01-10T06:18:27.778Z,3.50
2023-01-10T06:20:54.929Z,3.50
2023-01-10T06:23:22.082Z,3.90
2023-01-10T06:25:49.267Z,4.70
2023-01-10T06:28:16.467Z,3.73
2023-01-10T06:30:43.770Z,4.00
2023-01-10T06:33:11.608Z,3.73
2023-01-10T06:35:39.455Z,3.43
2023-01-10T06:38:06.618Z,3.07
2023-01-10T06:40:34.026Z,3.90
2023-01-10T06:43:01.254Z,3.80
2023-01-10T06:45:28.415Z,3.20
2023-01-10T06:47:55.576Z,3.03
2023-01-10T06:50:23.318Z,8.90
2023-01-10T06:52:57.673Z,5.27
2023-01-10T06:55:25.010Z,3.73
2023-01-10T06:57:58.921Z,4.33
2023-01-10T07:00:27.437Z,4.13
2023-01-10T07:02:56.281Z,4.40
2023-01-10T07:05:23.447Z,4.03
2023-01-10T07:07:50.639Z,3.33
2023-01-10T07:10:18.042Z,3.53
2023-01-10T07:12:45.152Z,3.50
2023-01-10T07:15:12.708Z,3.90
2023-01-10T07:17:39.822Z,3.57
2023-01-10T07:20:07.155Z,3.63
2023-01-10T07:22:34.251Z,3.77
2023-01-10T07:25:01.383Z,4.90
2023-01-10T07:27:30.777Z,3.40
2023-01-10T07:29:57.860Z,3.97
2023-01-10T07:32:25.382Z,3.70
2023-01-10T07:34:52.574Z,3.33
2023-01-10T07:37:19.878Z,3.33
2023-01-10T07:39:46.991Z,3.60
2023-01-10T07:42:14.064Z,2.67
2023-01-10T07:44:41.180Z,4.30
2023-01-10T07:47:08.290Z,4.20
2023-01-10T07:49:35.453Z,4.53
2023-01-10T07:52:02.587Z,3.87
2023-01-10T07:54:29.702Z,4.77
2023-01-10T07:56:56.874Z,5.17
2023-01-10T07:59:24.013Z,4.27
2023-01-10T08:01:51.138Z,5.00
2023-01-10T08:04:18.231Z,5.93
2023-01-10T08:06:45.330Z,5.70
2023-01-10T08:09:12.787Z,5.53
2023-01-10T08:11:41.596Z,6.63
2023-01-10T08:14:09.033Z,5.77
2023-01-10T08:16:36.125Z,5.80
2023-01-10T08:19:03.248Z,6.30
2023-01-10T08:21:30.366Z,6.03
2023-01-10T08:23:57.520Z,4.67
2023-01-10T08:26:24.643Z,4.97
2023-01-10T08:28:51.729Z,5.03
2023-01-10T08:31:18.870Z,5.73
2023-01-10T08:33:46.013Z,5.97
2023-01-10T08:36:19.964Z,5.50
2023-01-10T08:38:47.845Z,5.47
2023-01-10T08:41:15.033Z,5.50
2023-01-10T08:43:42.178Z,4.67
2023-01-10T08:46:09.347Z,6.03
2023-01-10T08:48:36.611Z,5.37
2023-01-10T08:51:10.470Z,5.13
2023-01-10T08:53:39.443Z,6.77
2023-01-10T08:56:06.767Z,5.87
2023-01-10T08:58:33.876Z,5.57
2023-01-10T09:01:01.065Z,4.90
2023-01-10T09:03:28.179Z,5.33
2023-01-10T09:05:55.299Z,5.93
2023-01-10T09:08:22.629Z,4.77
2023-01-10T09:10:49.740Z,5.33
2023-01-10T09:13:16.909Z,5.37
2023-01-10T09:15:44.306Z,4.33
2023-01-10T09:18:12.592Z,3.33
2023-01-10T09:20:40.723Z,4.83
2023-01-10T09:23:12.545Z,4.97
2023-01-10T09:25:39.707Z,6.07
2023-01-10T09:28:07.236Z,7.30
2023-01-10T09:30:34.397Z,4.93
2023-01-10T09:33:01.856Z,4.83
2023-01-10T09:35:29.729Z,5.10
2023-01-10T09:37:58.200Z,4.90
2023-01-10T09:40:34.163Z,7.03
2023-01-10T09:43:11.543Z,5.30
2023-01-10T09:45:42.032Z,5.23
2023-01-10T09:48:21.375Z,6.37
2023-01-10T09:51:04.774Z,5.73
2023-01-10T09:53:32.975Z,5.90
2023-01-10T09:56:00.964Z,5.77
2023-01-10T09:58:31.088Z,5.73
2023-01-10T10:00:59.568Z,4.97
2023-01-10T10:03:32.193Z,4.67
2023-01-10T10:06:11.107Z,5.37
2023-01-10T10:08:40.128Z,5.37
2023-01-10T10:11:26.208Z,5.07
2023-01-10T10:13:56.456Z,5.30
2023-01-10T10:16:29.395Z,6.00
2023-01-10T10:19:09.760Z,5.57
2023-01-10T10:21:36.873Z,5.37
2023-01-10T10:24:17.017Z,5.23
2023-01-10T10:26:46.979Z,5.33
2023-01-10T10:29:26.463Z,5.50
2023-01-10T10:32:09.592Z,4.47
2023-01-10T10:34:37.492Z,4.73
2023-01-10T10:37:15.480Z,3.67
2023-01-10T10:39:48.367Z,3.63
2023-01-10T10:42:17.834Z,4.23
2023-01-10T10:44:56.003Z,4.13
2023-01-10T10:47:24.435Z,3.63
2023-01-10T10:50:00.524Z,4.97
2023-01-10T10:52:32.087Z,4.37
2023-01-10T10:54:59.636Z,4.93
2023-01-10T10:57:28.482Z,4.97
2023-01-10T10:59:56.213Z,4.00
2023-01-10T11:02:26.488Z,3.23
2023-01-10T11:04:55.928Z,7.90
2023-01-10T11:07:23.669Z,3.63
2023-01-10T11:10:10.068Z,3.93
2023-01-10T11:12:41.850Z,4.20
2023-01-10T11:15:09.215Z,4.30
2023-01-10T11:17:40.874Z,3.90
2023-01-10T11:20:15.338Z,3.53
2023-01-10T11:22:53.807Z,3.83
2023-01-10T11:25:23.769Z,3.27
2023-01-10T11:28:01.348Z,3.40
2023-01-10T11:30:32.424Z,3.40
2023-01-10T11:33:03.297Z,3.93
2023-01-10T11:35:33.591Z,3.90
2023-01-10T11:38:00.686Z,2.80
2023-01-10T11:40:29.163Z,3.07
2023-01-10T11:42:59.238Z,5.10
2023-01-10T11:45:28.886Z,4.40
2023-01-10T11:47:59.101Z,3.63
2023-01-10T11:50:30.790Z,4.20
2023-01-10T11:52:58.342Z,3.63
2023-01-10T11:55:27.497Z,2.63
2023-01-10T11:58:03.453Z,3.10
2023-01-10T12:00:42.983Z,3.20
2023-01-10T12:03:40.140Z,5.50
2023-01-10T12:06:07.446Z,3.00
2023-01-10T12:08:41.720Z,3.27
2023-01-10T12:11:18.000Z,4.27
2023-01-10T12:13:48.263Z,3.10
2023-01-10T12:16:35.715Z,3.03
2023-01-10T12:19:05.249Z,3.70
2023-01-10T12:21:36.921Z,3.60
2023-01-10T12:24:11.713Z,3.30
2023-01-10T12:26:39.512Z,2.60
2023-01-10T12:29:09.421Z,2.90
2023-01-10T12:31:38.238Z,3.40
2023-01-10T12:34:08.312Z,2.97
2023-01-10T12:36:38.337Z,4.17
2023-01-10T12:39:16.611Z,3.23
2023-01-10T12:42:02.704Z,3.23
2023-01-10T12:44:33.824Z,3.47
2023-01-10T12:47:11.320Z,4.40
2023-01-10T12:49:53.792Z,2.80
2023-01-10T12:52:45.603Z,3.60
2023-01-10T12:55:16.587Z,2.73
2023-01-10T12:57:45.385Z,3.93
2023-01-10T13:00:21.495Z,2.63
2023-01-10T13:02:50.209Z,3.00
2023-01-10T13:05:19.791Z,3.93
2023-01-10T13:07:48.038Z,4.57
2023-01-10T13:10:18.233Z,3.33
2023-01-10T13:12:47.881Z,2.63
2023-01-10T13:15:15.050Z,2.40
2023-01-10T13:17:57.215Z,3.47
2023-01-10T13:20:24.605Z,3.57
2023-01-10T13:22:52.577Z,2.63
2023-01-10T13:25:25.625Z,3.10
2023-01-10T13:27:59.971Z,2.80
2023-01-10T13:30:40.896Z,2.93
2023-01-10T13:33:26.558Z,3.53
2023-01-10T13:35:55.289Z,3.17
2023-01-10T13:38:22.387Z,3.40
2023-01-10T13:40:58.501Z,2.83
2023-01-10T13:43:33.542Z,2.87
2023-01-10T13:46:15.836Z,3.00
2023-01-10T13:48:43.429Z,3.23
2023-01-10T13:51:15.882Z,2.40
2023-01-10T13:53:44.597Z,2.70
2023-01-10T13:56:31.662Z,2.53
2023-01-10T13:59:17.507Z,2.53
2023-01-10T14:02:04.087Z,3.17
2023-01-10T14:04:34.133Z,2.93
2023-01-10T14:07:05.605Z,2.40
2023-01-10T14:09:36.214Z,3.97
2023-01-10T14:12:08.732Z,2.87
2023-01-10T14:14:38.164Z,3.20
2023-01-10T14:17:13.913Z,2.20
2023-01-10T14:19:42.979Z,2.63
2023-01-10T14:22:22.394Z,2.30
2023-01-10T14:24:51.535Z,2.60
2023-01-10T14:27:20.100Z,3.97
2023-01-10T14:29:50.267Z,3.77
2023-01-10T14:32:29.383Z,3.07
2023-01-10T14:34:56.605Z,2.50
2023-01-10T14:37:44.592Z,6.23
2023-01-10T14:40:23.405Z,2.80
2023-01-10T14:42:51.219Z,2.37
2023-01-10T14:45:41.576Z,2.50
2023-01-10T14:48:28.885Z,3.10
2023-01-10T14:51:14.371Z,3.43
2023-01-10T14:53:42.528Z,2.63
2023-01-10T14:56:23.568Z,2.13
2023-01-10T14:58:50.679Z,2.57
2023-01-10T15:01:22.538Z,3.80
2023-01-10T15:03:50.150Z,3.33
2023-01-10T15:06:17.256Z,2.53
2023-01-10T15:08:44.399Z,2.47
2023-01-10T15:11:12.738Z,2.77
2023-01-10T15:13:59.828Z,2.80
2023-01-10T15:16:28.131Z,2.70
2023-01-10T15:18:56.582Z,2.37
2023-01-10T15:21:24.461Z,2.53
2023-01-10T15:23:51.685Z,3.77
2023-01-10T15:26:21.075Z,2.60
2023-01-10T15:29:03.140Z,2.47
2023-01-10T15:31:30.616Z,3.07
2023-01-10T15:33:58.890Z,2.30
2023-01-10T15:36:27.961Z,2.80
2023-01-10T15:38:55.265Z,2.90
2023-01-10T15:41:23.573Z,2.93
2023-01-10T15:43:52.070Z,2.17
2023-01-10T15:46:21.314Z,3.23
2023-01-10T15:49:01.317Z,1.83
2023-01-10T15:51:38.902Z,3.47
2023-01-10T15:54:09.827Z,2.60
2023-01-10T15:56:39.246Z,3.27
2023-01-10T15:59:39.112Z,3.00
2023-01-10T16:02:13.612Z,2.70
2023-01-10T16:04:41.121Z,3.50
2023-01-10T16:07:20.093Z,2.97
2023-01-10T16:10:10.451Z,2.40
2023-01-10T16:12:57.418Z,2.43
2023-01-10T16:15:27.026Z,4.40
2023-01-10T16:17:54.212Z,2.73
2023-01-10T16:20:27.201Z,2.93
2023-01-10T16:22:55.728Z,3.00
2023-01-10T16:25:29.219Z,3.33
2023-01-10T16:27:56.349Z,2.90
2023-01-10T16:30:26.268Z,2.67
2023-01-10T16:32:53.548Z,3.13
2023-01-10T16:35:21.276Z,2.57
2023-01-10T16:37:48.775Z,2.87
2023-01-10T16:40:18.677Z,3.17
2023-01-10T16:43:04.624Z,3.73
2023-01-10T16:45:31.859Z,2.67
2023-01-10T16:47:59.150Z,4.17
2023-01-10T16:50:26.375Z,3.57
2023-01-10T16:52:53.545Z,2.80
2023-01-10T16:55:21.392Z,3.30
2023-01-10T16:57:49.203Z,2.60
2023-01-10T17:00:16.550Z,2.90
2023-01-10T17:02:47.070Z,3.37
2023-01-10T17:05:16.449Z,4.00
2023-01-10T17:07:43.863Z,2.97
2023-01-10T17:10:11.351Z,4.10
2023-01-10T17:12:42.350Z,2.60
2023-01-10T17:15:12.227Z,3.17
2023-01-10T17:17:39.491Z,3.33
2023-01-10T17:20:07.262Z,3.07
2023-01-10T17:22:34.462Z,3.80
2023-01-10T17:25:01.607Z,3.10
2023-01-10T17:27:28.803Z,3.30
2023-01-10T17:29:55.979Z,3.10
2023-01-10T17:32:23.059Z,2.37
2023-01-10T17:34:50.208Z,2.90
2023-01-10T17:37:18.510Z,3.23
2023-01-10T17:39:45.654Z,2.27
2023-01-10T17:42:12.905Z,2.23
2023-01-10T17:44:40.028Z,3.60
2023-01-10T17:47:10.078Z,2.93
2023-01-10T17:49:42.003Z,3.17
2023-01-10T17:52:09.778Z,2.30
2023-01-10T17:54:36.906Z,2.87
2023-01-10T17:57:04.905Z,2.70
2023-01-10T17:59:32.063Z,2.83
2023-01-10T18:01:59.293Z,2.80
2023-01-10T18:04:26.590Z,2.17
2023-01-10T18:06:53.726Z,2.13
2023-01-10T18:09:20.849Z,2.40
2023-01-10T18:11:47.978Z,3.23
2023-01-10T18:14:33.898Z,2.63
2023-01-10T18:17:01.059Z,2.30
2023-01-10T18:19:29.879Z,3.33
2023-01-10T18:21:57.060Z,2.33
2023-01-10T18:24:24.173Z,2.83
2023-01-10T18:26:51.362Z,2.93
2023-01-10T18:29:18.615Z,2.70
2023-01-10T18:31:45.834Z,2.63
2023-01-10T18:34:12.966Z,2.93
2023-01-10T18:36:41.100Z,2.77
2023-01-10T18:39:08.285Z,1.93
2023-01-10T18:41:35.389Z,2.57
2023-01-10T18:44:02.687Z,2.60
2023-01-10T18:46:30.080Z,2.70
2023-01-10T18:48:57.241Z,12.33
2023-01-10T18:51:25.430Z,3.40
2023-01-10T18:53:53.136Z,2.80
2023-01-10T18:56:20.334Z,2.83
2023-01-10T18:58:47.493Z,2.73
2023-01-10T19:01:18.727Z,2.87
2023-01-10T19:03:46.058Z,2.40
2023-01-10T19:06:16.340Z,2.60
2023-01-10T19:08:44.361Z,2.23
2023-01-10T19:11:14.313Z,2.83
2023-01-10T19:13:42.874Z,2.30
2023-01-10T19:16:13.436Z,2.47
2023-01-10T19:18:40.925Z,2.33
2023-01-10T19:21:14.773Z,2.20
2023-01-10T19:23:42.599Z,2.27
2023-01-10T19:26:09.997Z,2.23
2023-01-10T19:28:37.142Z,1.90
2023-01-10T19:31:05.414Z,1.90
2023-01-10T19:33:34.349Z,2.50
2023-01-10T19:36:05.191Z,1.77
2023-01-10T19:38:32.486Z,2.23
2023-01-10T19:40:59.764Z,2.13
2023-01-10T19:43:26.919Z,1.70
2023-01-10T19:45:54.422Z,2.43
2023-01-10T19:48:22.711Z,2.30
2023-01-10T19:50:50.018Z,2.10
2023-01-10T19:53:17.230Z,2.63
2023-01-10T19:55:44.520Z,2.47
2023-01-10T19:58:11.713Z,2.67
2023-01-10T20:00:41.990Z,2.73
2023-01-10T20:03:09.320Z,2.67
2023-01-10T20:05:36.702Z,3.17
2023-01-10T20:08:11.362Z,2.90
2023-01-10T20:10:41.251Z,3.17
2023-01-10T20:13:10.272Z,3.03
2023-01-10T20:15:40.443Z,3.00
2023-01-10T20:18:10.732Z,2.63
2023-01-10T20:20:41.628Z,2.10
2023-01-10T20:23:14.230Z,2.17
2023-01-10T20:25:41.389Z,2.20
2023-01-10T20:28:08.492Z,2.57
2023-01-10T20:30:39.558Z,2.40
2023-01-10T20:33:06.778Z,2.40
2023-01-10T20:35:39.067Z,2.50
2023-01-10T20:38:07.433Z,1.83
2023-01-10T20:40:34.671Z,1.80
2023-01-10T20:43:01.795Z,2.33
2023-01-10T20:45:28.893Z,2.13
2023-01-10T20:47:56.412Z,2.13
2023-01-10T20:50:23.918Z,12.37
2023-01-10T20:52:51.040Z,3.60
2023-01-10T20:55:20.190Z,2.53
2023-01-10T20:57:47.362Z,2.70
2023-01-10T21:00:14.770Z,2.17
2023-01-10T21:02:41.887Z,2.20
2023-01-10T21:05:09.608Z,1.83
2023-01-10T21:07:36.862Z,1.80
2023-01-10T21:10:04.024Z,1.40
2023-01-10T21:12:32.923Z,1.43
2023-01-10T21:15:00.037Z,1.87
2023-01-10T21:17:27.177Z,1.53
2023-01-10T21:19:54.314Z,1.90
2023-01-10T21:22:21.507Z,1.40
2023-01-10T21:24:49.867Z,1.80
2023-01-10T21:27:17.103Z,1.20
2023-01-10T21:29:44.225Z,1.37
2023-01-10T21:32:12.991Z,1.43
2023-01-10T21:34:40.171Z,1.70
2023-01-10T21:37:07.329Z,1.57
2023-01-10T21:39:34.450Z,1.43
2023-01-10T21:42:20.232Z,1.50
2023-01-10T21:44:47.379Z,1.40
2023-01-10T21:47:14.545Z,1.43
2023-01-10T21:49:41.637Z,1.50
2023-01-10T21:52:11.861Z,8.73
2023-01-10T21:54:38.989Z,1.90
2023-01-10T21:57:06.091Z,1.77
2023-01-10T21:59:34.060Z,1.50
2023-01-10T22:02:01.378Z,1.60
2023-01-10T22:04:28.544Z,1.37
2023-01-10T22:06:55.856Z,1.20
2023-01-10T22:09:29.131Z,1.10
2023-01-10T22:11:56.365Z,1.10
2023-01-10T22:14:23.480Z,1.27
2023-01-10T22:16:50.739Z,1.40
2023-01-10T22:19:17.881Z,1.93
2023-01-10T22:21:45.017Z,2.23
2023-01-10T22:24:12.226Z,2.07
2023-01-10T22:26:39.395Z,1.43
2023-01-10T22:29:07.649Z,1.67
2023-01-10T22:31:34.901Z,1.40
2023-01-10T22:34:02.118Z,1.60
2023-01-10T22:36:29.366Z,1.20
2023-01-10T22:38:56.518Z,1.53
2023-01-10T22:41:28.808Z,1.57
2023-01-10T22:43:56.556Z,1.80
2023-01-10T22:46:23.987Z,1.60
2023-01-10T22:48:51.288Z,1.70
2023-01-10T22:51:19.323Z,1.50
2023-01-10T22:53:50.500Z,1.40
2023-01-10T22:56:17.753Z,1.93
2023-01-10T22:58:48.194Z,1.20
2023-01-10T23:01:19.573Z,1.30
2023-01-10T23:03:47.311Z,1.30
2023-01-10T23:06:15.385Z,1.23
2023-01-10T23:08:42.996Z,1.40
2023-01-10T23:11:10.988Z,1.37
2023-01-10T23:13:38.275Z,1.77
2023-01-10T23:16:21.083Z,0.93
2023-01-10T23:18:51.329Z,1.27
2023-01-10T23:21:18.483Z,1.27
2023-01-10T23:23:45.618Z,1.17
2023-01-10T23:26:13.604Z,1.10
2023-01-10T23:28:46.827Z,1.00
2023-01-10T23:31:15.715Z,1.17
2023-01-10T23:33:42.843Z,1.00
2023-01-10T23:36:10.443Z,1.10
2023-01-10T23:38:37.851Z,0.90
2023-01-10T23:41:05.127Z,1.03
2023-01-10T23:43:32.256Z,1.10
2023-01-10T23:45:59.562Z,0.90
2023-01-10T23:48:26.793Z,1.20
2023-01-10T23:50:53.945Z,1.00
2023-01-10T23:53:21.148Z,1.07
2023-01-10T23:55:48.298Z,1.20
2023-01-10T23:58:16.904Z,0.97
